Time;durP1;ratioP1;P1;durP2;ratioP2;P2;SDS_P1;SDS_P2;PMS_P1;PMS_P2;Temp;Humidity;BMP_temperature;BMP_pressure;BME280_temperature;BME280_humidity;BME280_pressure;Samples;Min_cycle;Max_cycle;Signal;HPM_P1;HPM_P2
2023/03/01 02:37:55;;;;;;;;;;;;;;;;;;;;;
2023/03/01 02:40:38;;;;;;;1.73;1.20;;;;;;;2.30;100.00;102149.72;4932788;29;20096;-96
2023/03/01 02:43:42;;;;;;;1.48;1.00;;;;;;;2.04;100.00;102102.06;4938559;23;20060;-96
2023/03/01 02:46:36;;;;;;;1.17;1.00;;;;;;;2.07;100.00;102116.50;4875310;29;20488;-96
2023/03/01 02:49:34;;;;;;;2.35;1.20;;;;;;;2.27;100.00;102144.63;4887318;29;20123;-96
2023/03/01 02:52:22;;;;;;;2.50;1.38;;;;;;;2.26;100.00;102140.38;4891019;29;20052;-96
2023/03/01 02:55:10;;;;;;;3.22;1.40;;;;;;;1.86;100.00;102117.25;4891718;29;20040;-96
2023/03/01 03:27:25;;;;;;;;;;;;;;;;;;;;;
2023/03/01 03:32:55;;;;;;;6.10;1.67;;;;;;;2.95;100.00;102115.06;4906184;29;20036;-96
2023/03/01 03:35:38;;;;;;;1.95;1.45;;;;;;;2.70;100.00;102066.56;4908708;29;20503;-96
2023/03/01 03:38:27;;;;;;;;;;;;;;;;;;;;;
2023/03/01 03:41:22;;;;;;;3.40;1.38;;;;;;;2.61;100.00;102064.03;4910781;29;20115;-96
2023/03/01 03:44:07;;;;;;;4.50;1.70;;;;;;;2.65;100.00;102064.88;4929057;29;20040;-96
2023/03/01 03:47:03;;;;;;;;;;;;;;;;;;;;;
2023/03/01 03:49:34;;;;;;;4.93;1.50;;;;;;;2.80;100.00;102054.69;4931719;29;20059;-96
2023/03/01 03:52:02;;;;;;;4.30;1.90;;;;;;;2.86;100.00;102054.72;4925870;29;20028;-96
2023/03/01 03:54:33;;;;;;;3.38;1.73;;;;;;;2.94;100.00;102073.41;4925950;29;20036;-96
2023/03/01 03:57:10;;;;;;;2.58;1.55;;;;;;;3.26;100.00;102109.97;4923962;29;20032;-96
2023/03/01 03:59:43;;;;;;;5.53;1.70;;;;;;;2.98;100.00;102061.50;4922222;29;20095;-96
2023/03/01 04:02:26;;;;;;;3.72;1.73;;;;;;;3.03;100.00;102058.97;4917237;29;20058;-96
2023/03/01 04:05:00;;;;;;;3.33;1.52;;;;;;;2.90;100.00;102056.41;4925831;29;20051;-96
2023/03/01 04:08:00;;;;;;;3.58;1.95;;;;;;;2.96;100.00;102066.59;4909990;29;20033;-95
2023/03/01 04:13:48;;;;;;;4.88;2.47;;;;;;;3.20;100.00;102105.72;4897652;29;20119;-96
2023/03/01 04:16:24;;;;;;;4.80;2.03;;;;;;;2.98;100.00;102059.81;4907284;29;20056;-96
2023/03/01 04:19:16;;;;;;;5.45;2.50;;;;;;;3.00;100.00;102060.66;4908390;29;20495;-96
2023/03/01 04:21:51;;;;;;;3.13;2.13;;;;;;;2.87;100.00;102053.84;4907537;29;20039;-96
2023/03/01 04:24:45;;;;;;;4.80;2.28;;;;;;;2.96;100.00;102051.31;4907069;29;20123;-96
2023/03/01 04:27:29;;;;;;;6.00;2.55;;;;;;;2.89;100.00;102054.69;4906886;29;20029;-96
2023/03/01 04:30:05;;;;;;;6.05;2.65;;;;;;;2.91;100.00;102055.56;4918408;29;20042;-96
2023/03/01 04:32:43;;;;;;;4.40;2.10;;;;;;;2.94;100.00;102053.00;4914001;29;20039;-96
2023/03/01 04:35:34;;;;;;;8.15;2.40;;;;;;;3.03;100.00;102048.78;4928260;29;20032;-96
2023/03/01 04:38:36;;;;;;;;;;;;;;;;;;;;;
2023/03/01 04:41:44;;;;;;;8.68;2.67;;;;;;;3.13;100.00;102058.09;4928746;29;20135;-96
2023/03/01 04:44:30;;;;;;;3.58;2.15;;;;;;;3.19;100.00;102071.72;4927789;29;20068;-96
2023/03/01 04:50:37;;;;;;;4.57;1.60;;;;;;;3.19;100.00;102081.06;4923174;29;20051;-96
2023/03/01 04:53:22;;;;;;;3.47;2.03;;;;;;;3.05;100.00;102031.75;4925297;29;20487;-96
2023/03/01 04:55:59;;;;;;;5.70;2.10;;;;;;;2.96;100.00;102036.00;4929184;29;20518;-96
2023/03/01 04:58:51;;;;;;;7.97;2.13;;;;;;;3.02;100.00;102032.59;4928812;29;20048;-96
2023/03/01 05:01:55;;;;;;;;;;;;;;;;;;;;;
2023/03/01 05:04:44;;;;;;;4.43;1.90;;;;;;;2.96;100.00;102035.16;4930061;29;20068;-96
2023/03/01 05:07:51;;;;;;;4.22;2.30;;;;;;;2.95;100.00;102036.88;4929070;29;20059;-95
2023/03/01 05:10:46;;;;;;;;;;;;;;;;;;;;;
2023/03/01 05:13:52;;;;;;;;;;;;;;;;;;;;;
2023/03/01 05:16:33;;;;;;;4.50;2.20;;;;;;;3.01;100.00;102020.69;4907240;29;20099;-96
2023/03/01 05:19:33;;;;;;;5.55;2.25;;;;;;;3.13;100.00;102050.47;4927891;29;20075;-95
2023/03/01 05:25:17;;;;;;;;;;;;;;;;;;;;;
2023/03/01 05:31:20;;;;;;;2.70;1.85;;;;;;;3.10;100.00;102020.69;4928819;29;20121;-96
2023/03/01 05:34:06;;;;;;;;;;;;;;;;;;;;;
2023/03/01 05:37:13;;;;;;;4.72;1.90;;;;;;;3.23;100.00;102064.91;4933886;29;20063;-96
2023/03/01 06:21:07;;;;;;;5.68;2.20;;;;;;;3.15;100.00;102058.97;4926472;29;20041;-96
2023/03/01 06:23:45;;;;;;;5.65;2.90;;;;;;;2.88;100.00;102017.31;4925677;29;20075;-95
2023/03/01 06:26:42;;;;;;;3.85;2.88;;;;;;;2.84;100.00;102007.94;4929721;29;20533;-96
2023/03/01 06:29:09;;;;;;;4.60;2.53;;;;;;;3.15;100.00;102066.63;4927174;29;20436;-95
2023/03/01 06:31:38;;;;;;;4.28;2.33;;;;;;;2.81;100.00;102013.06;4925443;29;20036;-96
2023/03/01 06:34:04;;;;;;;5.47;2.60;;;;;;;2.87;100.00;102024.94;4923929;29;20040;-96
2023/03/01 06:36:29;;;;;;;4.20;2.58;;;;;;;3.05;100.00;102047.91;4924219;29;20087;-95
2023/03/01 06:38:55;;;;;;;3.22;1.98;;;;;;;2.95;100.00;102036.88;4922558;29;20035;-96
2023/03/01 06:41:21;;;;;;;3.17;2.35;;;;;;;2.90;100.00;102018.16;4923316;29;20388;-95
2023/03/01 06:43:46;;;;;;;4.78;2.30;;;;;;;2.99;100.00;102045.34;4918251;29;20084;-96
2023/03/01 06:46:12;;;;;;;4.13;2.25;;;;;;;2.71;100.00;102019.84;4920087;29;20025;-96
2023/03/01 06:48:38;;;;;;;4.15;2.50;;;;;;;2.76;100.00;102018.16;4904184;29;20032;-95
2023/03/01 06:51:04;;;;;;;3.22;2.30;;;;;;;2.83;100.00;102028.34;4904155;29;20032;-96
2023/03/01 06:53:29;;;;;;;3.78;2.15;;;;;;;2.74;100.00;102026.66;4904387;29;20033;-95
2023/03/01 06:55:56;;;;;;;4.00;2.15;;;;;;;2.78;100.00;102029.22;4902140;29;20494;-95
2023/03/01 06:58:22;;;;;;;5.85;2.60;;;;;;;2.88;100.00;102063.22;4901297;29;20033;-95
2023/03/01 07:00:47;;;;;;;4.18;2.53;;;;;;;2.82;100.00;102036.84;4901354;29;20168;-96
2023/03/01 07:03:13;;;;;;;4.75;2.20;;;;;;;3.19;100.00;102058.09;4924535;29;20111;-96
2023/03/01 07:05:41;;;;;;;3.22;2.40;;;;;;;3.02;100.00;102026.66;4915520;29;20029;-96
2023/03/01 07:08:06;;;;;;;2.95;2.17;;;;;;;3.05;100.00;102054.69;4917026;29;20112;-96
2023/03/01 07:10:32;;;;;;;4.88;2.72;;;;;;;3.02;100.00;102054.69;4900516;29;20055;-95
2023/03/01 07:12:58;;;;;;;5.80;2.60;;;;;;;2.78;100.00;102020.72;4916327;29;20118;-96
2023/03/01 07:15:25;;;;;;;4.10;2.25;;;;;;;2.91;100.00;102024.97;4919275;29;20024;-96
2023/03/01 07:18:19;;;;;;;;;;;;;;;;;;;;;
2023/03/01 07:21:44;;;;;;;;;;;;;;;;;;;;;
2023/03/01 07:34:43;;;;;;;2.85;1.73;;;;;;;3.16;100.00;102045.34;5522741;23;20057;-96
2023/03/01 07:37:22;;;;;;;3.97;1.77;;;;;;;3.64;100.00;102085.25;4829388;29;20438;-96
2023/03/01 07:43:35;;;;;;;3.78;1.58;;;;;;;3.79;100.00;102048.63;4875172;29;20090;-96
2023/03/01 07:52:19;;;;;;;4.60;1.60;;;;;;;4.29;100.00;102068.00;4923180;29;20046;-96
2023/03/01 07:54:48;;;;;;;3.22;1.52;;;;;;;3.98;100.00;102056.22;4939238;29;20032;-96
2023/03/01 07:57:13;;;;;;;6.18;1.50;;;;;;;4.22;100.00;102063.78;4916993;29;20024;-96
2023/03/01 08:03:01;;;;;;;6.50;1.83;;;;;;;4.50;100.00;102069.56;4888592;29;20052;-96
2023/03/01 08:05:27;;;;;;;3.70;1.20;;;;;;;4.69;100.00;102107.81;4921192;29;20032;-96
2023/03/01 08:07:55;;;;;;;6.05;1.48;;;;;;;4.28;100.00;102061.16;4926729;29;20028;-96
2023/03/01 08:10:26;;;;;;;3.58;1.40;;;;;;;4.47;100.00;102082.38;4929310;29;20498;-96
2023/03/01 08:12:52;;;;;;;4.28;1.90;;;;;;;4.77;100.00;102092.44;4925852;29;20485;-96
2023/03/01 08:15:18;;;;;;;3.40;1.60;;;;;;;4.53;100.00;102070.41;4941308;23;20040;-96
2023/03/01 08:17:44;;;;;;;5.75;1.40;;;;;;;4.91;100.00;102083.78;4940015;29;20023;-96
2023/03/01 08:20:12;;;;;;;3.85;1.50;;;;;;;4.85;100.00;102072.75;4935756;29;20090;-95
2023/03/01 08:22:38;;;;;;;4.05;1.60;;;;;;;5.04;100.00;102093.94;4944421;29;20583;-96
2023/03/01 08:25:04;;;;;;;2.75;1.27;;;;;;;4.93;100.00;102055.66;4933195;29;20032;-96
2023/03/01 08:27:30;;;;;;;2.65;1.23;;;;;;;5.51;99.12;102096.09;4920407;29;20381;-95
2023/03/01 08:29:55;;;;;;;6.88;1.40;;;;;;;5.65;95.37;102103.63;4922931;29;20024;-96
2023/03/01 08:32:21;;;;;;;2.10;1.35;;;;;;;5.82;92.52;102092.34;4916547;29;20542;-96
2023/03/01 08:34:47;;;;;;;3.53;0.95;;;;;;;5.62;89.64;102049.03;4916663;29;20542;-96
2023/03/01 08:37:12;;;;;;;2.38;1.20;;;;;;;6.48;86.27;102061.63;4926001;29;20043;-95
2023/03/01 08:39:38;;;;;;;2.22;1.10;;;;;;;7.73;79.35;102057.81;4923100;29;20024;-95
2023/03/01 08:42:04;;;;;;;4.78;0.85;;;;;;;12.75;59.83;102067.84;4918531;29;20020;-96
2023/03/01 08:44:29;;;;;;;2.47;1.05;;;;;;;14.99;51.15;102047.38;4931927;29;20479;-96
2023/03/01 08:46:55;;;;;;;1.70;0.68;;;;;;;15.67;46.86;102062.94;4925470;29;20028;-96
2023/03/01 08:49:22;;;;;;;2.05;0.60;;;;;;;11.91;52.98;102067.63;4922436;29;20034;-95
2023/03/01 08:51:48;;;;;;;1.80;0.75;;;;;;;11.02;57.07;102057.78;4933375;29;20024;-96
2023/03/01 08:54:16;;;;;;;2.78;0.70;;;;;;;10.20;59.96;102064.63;4933269;29;20023;-96
2023/03/01 08:56:42;;;;;;;1.25;0.50;;;;;;;9.14;62.22;102054.66;4926587;29;20035;-96
2023/03/01 08:59:07;;;;;;;2.30;0.57;;;;;;;8.42;66.02;102069.25;4915916;29;20467;-95
2023/03/01 09:01:33;;;;;;;1.95;0.65;;;;;;;8.48;65.53;102061.38;4915656;29;20024;-95
2023/03/01 09:03:59;;;;;;;1.70;0.55;;;;;;;8.36;66.00;102095.06;4916379;29;20030;-96
2023/03/01 09:06:25;;;;;;;2.80;0.57;;;;;;;11.82;57.69;102075.66;4913513;29;20043;-95
2023/03/01 09:08:51;;;;;;;0.93;0.45;;;;;;;12.85;53.48;102071.75;4913515;29;20371;-95
2023/03/01 09:11:20;;;;;;;1.92;0.30;;;;;;;14.84;47.82;102068.94;4915322;29;20031;-96
2023/03/01 09:13:47;;;;;;;1.23;0.40;;;;;;;16.80;43.91;102044.59;4915292;29;20127;-96
2023/03/01 09:16:15;;;;;;;0.63;0.38;;;;;;;14.71;46.59;102046.16;4915736;29;20028;-96
2023/03/01 09:18:41;;;;;;;1.88;0.50;;;;;;;19.30;39.64;102064.63;4913355;29;20032;-96
2023/03/01 09:21:09;;;;;;;1.13;0.50;;;;;;;23.58;32.78;102062.19;4915407;29;20118;-96
2023/03/01 09:27:31;;;;;;;1.92;0.30;;;;;;;18.93;38.43;102074.97;4917732;29;20060;-96
2023/03/01 09:30:18;;;;;;;1.45;0.45;;;;;;;18.29;39.05;102061.66;4857000;29;20033;-96
2023/03/01 09:32:44;;;;;;;0.30;0.30;;;;;;;20.43;34.88;102089.84;5218381;23;20052;-95
2023/03/01 09:35:11;;;;;;;0.57;0.35;;;;;;;23.08;32.36;102079.56;4880889;29;20076;-96
2023/03/01 09:37:38;;;;;;;3.22;0.50;;;;;;;22.25;34.05;102087.38;4880504;29;20033;-95
2023/03/01 09:40:24;;;;;;;3.97;0.50;;;;;;;19.15;35.17;102059.47;4889921;29;20033;-96
2023/03/01 09:43:14;;;;;;;;;;;;;;;;;;;;;
2023/03/01 09:45:45;;;;;;;1.73;0.40;;;;;;;17.64;37.73;102068.28;4880864;29;20121;-95
2023/03/01 09:48:21;;;;;;;0.88;0.20;;;;;;;12.75;47.01;102040.19;4879763;29;20404;-96
2023/03/01 09:51:12;;;;;;;0.50;0.20;;;;;;;10.53;51.33;102022.38;4883918;29;20029;-96
2023/03/01 10:02:02;;;;;;;1.73;0.32;;;;;;;8.93;58.37;102004.53;5018256;23;20059;-96
2023/03/01 10:04:47;;;;;;;0.85;0.40;;;;;;;9.35;58.96;102032.66;4908954;29;20041;-95
2023/03/01 10:09:52;;;;;;;0.80;0.20;;;;;;;8.42;61.21;101986.91;5071139;23;20053;-96
2023/03/01 10:12:25;;;;;;;1.45;0.30;;;;;;;8.20;63.10;101986.53;4901774;29;20032;-96
2023/03/01 10:15:16;;;;;;;0.35;0.22;;;;;;;12.04;53.79;102033.50;4915193;29;20032;-96
2023/03/01 10:17:58;;;;;;;0.50;0.20;;;;;;;15.96;42.74;102037.13;4926742;29;20064;-96
2023/03/01 10:20:30;;;;;;;1.63;0.40;;;;;;;17.93;38.75;102191.91;4928372;29;20043;-96
2023/03/01 10:22:56;;;;;;;0.95;0.20;;;;;;;21.70;32.97;102219.56;5290403;23;20044;-96
2023/03/01 10:25:25;;;;;;;4.32;0.40;;;;;;;20.23;33.33;102078.19;4930295;29;20033;-96
2023/03/01 10:27:54;;;;;;;0.20;0.15;;;;;;;15.59;39.98;102008.69;4900656;29;20027;-96
2023/03/01 10:30:34;;;;;;;0.50;0.25;;;;;;;12.90;45.49;102030.09;4911866;29;20067;-96
2023/03/01 10:33:01;;;;;;;0.60;0.20;;;;;;;11.36;49.96;101989.41;4913478;29;20028;-96
2023/03/01 10:35:29;;;;;;;2.17;0.22;;;;;;;10.67;52.00;101982.28;4935558;29;20067;-96
2023/03/01 10:38:07;;;;;;;1.27;0.40;;;;;;;9.41;54.88;101996.41;4933451;29;20122;-96
2023/03/01 10:41:01;;;;;;;1.23;0.30;;;;;;;9.12;57.95;101968.88;4912999;29;20036;-96
2023/03/01 10:43:40;;;;;;;1.33;0.35;;;;;;;9.35;59.82;102017.19;4903043;29;20400;-95
2023/03/01 10:46:21;;;;;;;3.15;1.38;;;;;;;8.59;62.91;102003.69;4910759;29;20439;-96
2023/03/01 10:49:12;;;;;;;2.72;0.68;;;;;;;7.80;65.94;102012.25;4913402;29;20046;-96
2023/03/01 10:51:43;;;;;;;1.55;0.60;;;;;;;7.24;68.25;101979.09;4925262;29;20123;-96
2023/03/01 10:54:29;;;;;;;0.63;0.30;;;;;;;7.91;66.64;102010.31;4920023;29;20016;-96
2023/03/01 10:57:02;;;;;;;3.00;1.30;;;;;;;8.12;65.95;101958.44;4935102;29;20072;-96
2023/03/01 10:59:41;;;;;;;3.60;0.73;;;;;;;8.95;62.84;101956.44;4928851;29;20036;-96
2023/03/01 11:02:28;;;;;;;2.63;1.20;;;;;;;8.67;62.80;101937.44;4932410;29;20020;-96
2023/03/01 11:05:15;;;;;;;1.80;0.93;;;;;;;9.08;62.45;101981.88;4924401;29;20108;-96
2023/03/01 11:07:55;;;;;;;1.33;0.60;;;;;;;9.35;60.66;101954.50;4912739;29;20049;-96
2023/03/01 11:21:17;;;;;;;1.05;0.40;;;;;;;14.27;49.00;101911.44;5149073;23;20053;-96
2023/03/01 11:24:15;;;;;;;0.73;0.30;;;;;;;20.27;37.64;101883.81;4932368;29;20060;-96
2023/03/01 11:30:00;;;;;;;;;;;;;;;;;;;;;
2023/03/01 11:32:35;;;;;;;1.17;0.25;;;;;;;17.03;39.41;101952.81;4925610;29;20131;-96
2023/03/01 11:54:34;;;;;;;0.22;0.20;;;;;;;11.37;53.88;101934.25;5884856;23;20034;-96
2023/03/01 11:57:37;;;;;;;1.17;0.40;;;;;;;11.03;54.49;101932.03;4927277;29;20391;-96
2023/03/01 12:00:24;;;;;;;2.15;0.70;;;;;;;13.43;48.67;101912.84;4937079;28;20042;-96
2023/03/01 12:03:15;;;;;;;1.40;0.50;;;;;;;15.28;46.58;101900.22;4906230;29;20483;-96
2023/03/01 12:06:03;;;;;;;0.90;0.52;;;;;;;17.86;40.49;101897.22;4895257;29;20028;-96
2023/03/01 12:08:42;;;;;;;0.32;0.32;;;;;;;18.37;39.67;101905.16;4903323;29;20037;-96
2023/03/01 12:11:41;;;;;;;1.63;0.50;;;;;;;14.77;44.80;101873.44;4912083;29;20028;-96
2023/03/01 12:14:38;;;;;;;2.67;0.65;;;;;;;12.79;54.49;101909.59;5137417;23;20073;-96
2023/03/01 12:17:40;;;;;;;0.85;0.68;;;;;;;11.04;57.28;101877.69;4907331;29;20028;-96
2023/03/01 12:20:39;;;;;;;2.90;1.10;;;;;;;9.98;62.90;101908.81;4889635;29;20045;-96
2023/03/01 12:23:25;;;;;;;1.77;1.17;;;;;;;9.49;66.78;101879.38;4898425;29;20052;-96
2023/03/01 12:26:16;;;;;;;1.85;1.20;;;;;;;9.25;65.48;101889.50;4900172;29;20024;-95
2023/03/01 12:28:51;;;;;;;2.53;1.50;;;;;;;10.24;64.34;101901.09;4904813;29;20029;-96
2023/03/01 12:31:45;;;;;;;1.58;1.23;;;;;;;11.23;59.85;101889.97;4899863;29;20036;-96
2023/03/01 12:34:37;;;;;;;1.60;1.40;;;;;;;10.60;58.75;101840.53;4898933;29;20040;-96
2023/03/01 12:37:29;;;;;;;3.55;1.58;;;;;;;10.40;58.29;101854.97;4900252;29;20123;-96
2023/03/01 12:40:29;;;;;;;1.58;1.30;;;;;;;10.28;60.42;101876.88;4907130;29;20037;-95
2023/03/01 12:43:29;;;;;;;1.83;1.40;;;;;;;9.98;60.40;101883.84;4891701;29;20034;-96
2023/03/01 12:46:17;;;;;;;2.33;1.25;;;;;;;9.80;61.10;101874.09;4895118;29;20029;-96
2023/03/01 12:48:42;;;;;;;1.88;1.40;;;;;;;9.80;61.38;101868.94;4884634;29;20036;-95
2023/03/01 12:51:17;;;;;;;3.80;1.70;;;;;;;10.00;60.21;101835.66;4898774;29;20538;-96
2023/03/01 12:53:46;;;;;;;4.63;1.70;;;;;;;9.95;60.14;101854.72;4901117;29;20028;-96
2023/03/01 12:58:53;;;;;;;2.28;1.70;;;;;;;9.40;60.82;101850.41;4913997;23;20495;-96
2023/03/01 13:01:31;;;;;;;2.58;1.65;;;;;;;10.02;59.14;101843.31;4915469;29;20028;-96
2023/03/01 13:04:27;;;;;;;3.97;1.60;;;;;;;10.54;59.56;101826.13;4914450;29;20037;-96
2023/03/01 13:07:13;;;;;;;2.83;1.60;;;;;;;9.33;60.24;101791.38;4895401;29;20052;-96
2023/03/01 13:13:21;;;;;;;1.63;1.27;;;;;;;9.58;60.08;101812.06;4894589;29;20138;-96
2023/03/01 13:15:50;;;;;;;1.80;1.27;;;;;;;9.58;59.07;101763.09;4909001;29;20024;-96
2023/03/01 13:18:16;;;;;;;2.15;1.00;;;;;;;9.81;59.14;101801.03;4913386;29;20044;-96
2023/03/01 13:20:42;;;;;;;3.67;1.50;;;;;;;9.30;58.72;101788.88;4899472;29;20044;-96
2023/03/01 13:23:32;;;;;;;2.15;1.27;;;;;;;9.04;61.18;101749.28;4895565;29;20013;-96
2023/03/01 13:26:12;;;;;;;3.45;1.38;;;;;;;9.48;58.34;101759.97;4918354;29;20049;-96
2023/03/01 13:28:46;;;;;;;2.42;1.40;;;;;;;9.69;58.45;101748.13;4916136;29;20039;-96
2023/03/01 13:33:46;;;;;;;5.47;1.42;;;;;;;9.39;60.01;101739.66;4935288;29;20082;-96
2023/03/01 13:36:33;;;;;;;1.98;1.50;;;;;;;10.38;59.31;101758.69;4908728;29;20032;-96
2023/03/01 13:39:05;;;;;;;3.58;1.35;;;;;;;10.05;58.88;101760.69;4915272;29;20032;-95
2023/03/01 13:41:42;;;;;;;4.97;1.35;;;;;;;10.31;59.86;101767.56;4915687;29;20475;-96
2023/03/01 13:44:26;;;;;;;2.13;1.20;;;;;;;10.49;58.28;101760.91;4924840;29;20148;-96
2023/03/01 13:47:08;;;;;;;2.08;1.77;;;;;;;9.71;59.26;101756.66;4919829;29;20050;-96
2023/03/01 13:49:57;;;;;;;1.67;1.17;;;;;;;10.01;57.89;101749.63;4923186;29;20034;-96
2023/03/01 13:52:41;;;;;;;1.20;1.10;;;;;;;9.78;59.54;101758.16;4927101;29;20128;-95
2023/03/01 13:55:16;;;;;;;4.78;1.40;;;;;;;9.98;59.23;101716.22;4916964;29;20084;-96
2023/03/01 13:57:46;;;;;;;1.92;1.13;;;;;;;9.63;61.32;101736.28;4915580;29;20036;-96
2023/03/01 14:00:44;;;;;;;1.75;1.33;;;;;;;9.56;63.50;101721.06;4913306;29;20031;-96
2023/03/01 14:03:18;;;;;;;2.90;1.58;;;;;;;9.20;63.01;101729.06;4877609;29;20040;-96
2023/03/01 14:06:07;;;;;;;2.65;1.50;;;;;;;8.52;66.16;101710.47;4924925;29;20067;-96
2023/03/01 14:08:36;;;;;;;5.55;1.52;;;;;;;8.59;67.85;101725.75;4920032;29;20055;-96
2023/03/01 14:11:32;;;;;;;3.38;2.20;;;;;;;8.19;70.53;101725.06;4919459;29;20132;-96
2023/03/01 14:14:13;;;;;;;1.90;1.10;;;;;;;8.05;74.42;101746.03;4920766;29;20028;-96
2023/03/01 14:17:21;;;;;;;1.27;0.80;;;;;;;7.85;75.99;101731.13;4937174;29;20036;-96
2023/03/01 14:19:54;;;;;;;1.85;1.10;;;;;;;8.17;77.59;101692.56;4918945;29;20025;-96
2023/03/01 14:22:27;;;;;;;5.10;1.65;;;;;;;8.26;76.71;101688.00;4918997;29;20119;-95
2023/03/01 14:24:59;;;;;;;1.42;1.15;;;;;;;8.46;78.12;101720.97;4912732;29;20024;-94
2023/03/01 14:27:44;;;;;;;2.63;1.23;;;;;;;8.43;75.85;101689.31;4907304;29;20072;-96
2023/03/01 14:30:31;;;;;;;5.00;1.20;;;;;;;8.84;79.08;101710.44;4917354;29;20501;-95
2023/03/01 14:33:02;;;;;;;2.28;1.42;;;;;;;8.81;77.91;101703.66;4933798;29;20040;-96
2023/03/01 14:35:30;;;;;;;1.83;1.35;;;;;;;8.57;76.94;101658.88;4918621;29;20119;-96
2023/03/01 14:38:13;;;;;;;1.30;1.20;;;;;;;8.86;76.07;101667.47;4924274;29;20031;-96
2023/03/01 14:40:42;;;;;;;1.30;1.20;;;;;;;8.89;73.90;101687.97;4914849;29;20036;-96
2023/03/01 14:43:26;;;;;;;2.45;1.05;;;;;;;8.82;73.28;101661.56;4920012;29;20032;-96
2023/03/01 14:45:58;;;;;;;2.03;1.10;;;;;;;8.87;73.56;101667.41;4924128;29;20036;-96
2023/03/01 14:48:26;;;;;;;1.38;0.88;;;;;;;8.84;74.37;101667.50;4941206;29;20092;-96
2023/03/01 14:50:55;;;;;;;2.67;1.25;;;;;;;8.49;73.84;101648.81;4919559;29;20048;-96
2023/03/01 14:53:28;;;;;;;1.95;1.15;;;;;;;8.26;73.40;101656.31;4936431;29;20103;-96
2023/03/01 14:55:56;;;;;;;2.30;0.98;;;;;;;7.89;74.15;101639.34;4912336;29;20024;-96
2023/03/01 14:58:25;;;;;;;5.15;2.42;;;;;;;7.98;74.45;101651.94;4909705;29;20390;-96
2023/03/01 15:00:55;;;;;;;2.13;1.23;;;;;;;8.07;72.92;101677.41;4921923;29;20499;-96
2023/03/01 15:03:43;;;;;;;1.70;1.52;;;;;;;7.92;71.50;101667.50;4921612;29;20040;-96
2023/03/01 15:06:11;;;;;;;2.50;1.17;;;;;;;8.12;73.53;101644.69;4919109;29;20043;-95
2023/03/01 15:08:42;;;;;;;7.55;1.48;;;;;;;8.24;70.92;101638.38;4921859;29;20032;-96
2023/03/01 15:11:17;;;;;;;3.03;1.10;;;;;;;8.41;71.98;101658.47;4923612;29;20040;-96
2023/03/01 15:13:46;;;;;;;1.83;1.20;;;;;;;8.15;72.10;101615.47;4921724;29;20470;-96
2023/03/01 15:16:27;;;;;;;4.68;1.20;;;;;;;8.09;73.09;101608.75;4917368;29;20091;-96
2023/03/01 15:19:05;;;;;;;2.40;1.40;;;;;;;8.08;73.39;101643.09;4907516;29;20562;-96
2023/03/01 15:21:36;;;;;;;4.47;1.50;;;;;;;7.49;73.74;101609.56;4900622;29;20419;-96
2023/03/01 15:24:20;;;;;;;;;;;;;;;7.81;77.17;101664.41;4921296;29;20083;-96
2023/03/01 15:26:57;;;;;;;4.95;1.25;;;;;;;7.39;77.77;101605.50;4921921;29;19925;-96
2023/03/01 15:29:33;;;;;;;2.13;1.00;;;;;;;7.56;78.41;101598.25;4918214;29;20039;-96
2023/03/01 15:32:03;;;;;;;1.85;1.15;;;;;;;7.85;78.98;101637.72;4910940;29;20032;-96
2023/03/01 15:34:36;;;;;;;2.55;1.60;;;;;;;7.83;78.83;101621.53;4918276;29;20483;-96
2023/03/01 15:37:05;;;;;;;2.38;1.48;;;;;;;7.62;80.66;101587.78;4932826;29;20073;-96
2023/03/01 15:39:45;;;;;;;4.45;1.98;;;;;;;7.71;79.89;101607.25;4918005;29;20051;-96
2023/03/01 15:42:33;;;;;;;4.28;1.50;;;;;;;7.43;79.75;101602.00;4916132;29;20024;-95
2023/03/01 15:45:09;;;;;;;4.20;1.55;;;;;;;7.47;79.15;101624.16;4917483;29;20024;-96
2023/03/01 15:47:38;;;;;;;3.50;1.25;;;;;;;7.52;81.08;101609.47;4916836;29;20096;-96
2023/03/01 15:50:04;;;;;;;4.95;1.10;;;;;;;7.15;78.17;101566.75;4915984;29;20039;-95
2023/03/01 15:52:41;;;;;;;1.13;0.90;;;;;;;7.22;76.73;101588.00;4917292;29;20483;-96
2023/03/01 15:55:17;;;;;;;3.22;1.17;;;;;;;7.17;76.54;101584.66;4915828;29;20040;-96
2023/03/01 15:57:43;;;;;;;2.70;1.02;;;;;;;6.92;78.49;101580.13;4906199;29;20028;-96
2023/03/01 16:00:13;;;;;;;3.60;1.17;;;;;;;6.89;79.80;101571.69;4916640;29;20140;-96
2023/03/01 16:02:40;;;;;;;1.25;0.80;;;;;;;6.97;79.00;101585.16;4919000;29;20032;-96
2023/03/01 16:05:15;;;;;;;5.03;2.08;;;;;;;6.63;79.54;101583.38;4917978;29;20063;-96
2023/03/01 16:07:40;;;;;;;1.52;1.00;;;;;;;6.69;82.58;101614.03;4916234;29;20050;-96
2023/03/01 16:10:06;;;;;;;1.98;1.23;;;;;;;6.41;87.37;101604.38;4916827;29;20562;-96
2023/03/01 16:12:31;;;;;;;4.55;1.52;;;;;;;6.30;98.77;101584.97;4916540;29;20127;-96
2023/03/01 16:14:57;;;;;;;4.68;1.33;;;;;;;6.35;100.00;101601.94;4917076;29;20031;-95
2023/03/01 16:17:23;;;;;;;2.22;1.38;;;;;;;6.33;100.00;101605.41;4916075;29;20036;-96
2023/03/01 16:19:48;;;;;;;3.85;1.58;;;;;;;6.30;100.00;101570.44;4917019;29;20032;-95
2023/03/01 16:22:14;;;;;;;4.93;1.40;;;;;;;6.40;100.00;101592.44;4931884;29;20070;-95
2023/03/01 16:24:40;;;;;;;4.18;1.85;;;;;;;6.40;100.00;101581.31;4916242;29;20514;-96
2023/03/01 16:27:06;;;;;;;7.53;2.72;;;;;;;6.26;100.00;101579.06;4916494;29;20104;-96
2023/03/01 16:29:32;;;;;;;4.40;1.58;;;;;;;6.25;100.00;101561.16;4916266;29;20107;-96
2023/03/01 16:32:01;;;;;;;4.20;1.90;;;;;;;6.45;100.00;101569.25;4914845;29;20035;-96
2023/03/01 16:34:26;;;;;;;3.90;1.70;;;;;;;6.32;100.00;101573.81;4931480;29;20758;-96
2023/03/01 16:36:52;;;;;;;2.45;1.65;;;;;;;6.27;100.00;101559.38;4914680;29;20028;-96
2023/03/01 16:39:17;;;;;;;3.60;2.25;;;;;;;6.29;100.00;101578.13;4915956;29;20028;-95
2023/03/01 16:41:43;;;;;;;2.83;1.90;;;;;;;6.12;100.00;101575.94;4913869;29;20035;-95
2023/03/01 16:44:09;;;;;;;4.38;1.80;;;;;;;6.15;100.00;101593.84;4915997;29;20065;-97
2023/03/01 16:46:35;;;;;;;5.32;2.10;;;;;;;6.07;100.00;101593.13;4915286;29;20367;-96
2023/03/01 16:49:01;;;;;;;4.82;2.13;;;;;;;5.85;100.00;101567.88;4914970;29;20035;-96
2023/03/01 16:51:26;;;;;;;3.90;1.98;;;;;;;5.99;100.00;101568.50;4917247;29;20032;-96
2023/03/01 16:53:52;;;;;;;3.88;1.60;;;;;;;5.90;100.00;101571.22;4913003;29;20033;-96
2023/03/01 16:56:18;;;;;;;2.25;1.17;;;;;;;5.78;100.00;101563.78;4911959;29;20028;-96
2023/03/01 16:58:44;;;;;;;2.55;1.48;;;;;;;5.79;100.00;101586.78;4915497;29;20040;-96
2023/03/01 17:01:15;;;;;;;2.92;0.90;;;;;;;5.73;100.00;101568.13;4914213;29;20028;-96
2023/03/01 17:03:42;;;;;;;1.00;0.90;;;;;;;5.55;100.00;101553.97;4930618;29;20031;-96
2023/03/01 17:06:11;;;;;;;3.05;0.82;;;;;;;5.47;100.00;101559.22;4916448;29;20412;-95
2023/03/01 17:08:37;;;;;;;2.85;0.80;;;;;;;5.45;100.00;101563.53;4931246;29;20060;-95
2023/03/01 17:11:12;;;;;;;3.47;1.00;;;;;;;5.14;100.00;101568.34;4930943;29;20056;-95
2023/03/01 17:13:41;;;;;;;2.50;0.88;;;;;;;4.88;100.00;101550.88;4915541;29;20029;-94
2023/03/01 17:16:09;;;;;;;1.90;1.00;;;;;;;5.04;100.00;101577.03;4915808;29;20550;-95
2023/03/01 17:18:36;;;;;;;4.70;1.38;;;;;;;4.73;100.00;101546.84;4915645;29;20399;-96
2023/03/01 17:21:03;;;;;;;2.42;1.10;;;;;;;4.81;100.00;101545.00;4915922;29;20091;-95
2023/03/01 17:23:29;;;;;;;2.65;1.38;;;;;;;4.81;100.00;101541.59;4915320;29;20028;-95
2023/03/01 17:25:55;;;;;;;2.55;1.50;;;;;;;4.84;100.00;101533.88;4914733;29;20031;-95
2023/03/01 17:28:26;;;;;;;3.83;1.60;;;;;;;4.84;100.00;101539.81;4914048;29;20040;-95
2023/03/01 17:30:52;;;;;;;4.18;2.00;;;;;;;4.89;100.00;101537.19;4916075;29;20028;-96
2023/03/01 17:33:18;;;;;;;4.07;1.42;;;;;;;5.07;100.00;101544.59;4914297;29;20067;-95
2023/03/01 17:35:46;;;;;;;2.95;1.95;;;;;;;5.10;100.00;101556.47;4914403;29;20024;-95
2023/03/01 17:38:14;;;;;;;2.38;1.83;;;;;;;4.97;100.00;101545.56;4915351;29;20036;-94
2023/03/01 17:40:41;;;;;;;5.35;1.95;;;;;;;4.98;100.00;101552.41;4913892;29;20028;-96
2023/03/01 17:43:08;;;;;;;3.35;1.52;;;;;;;4.97;100.00;101535.34;4914016;29;20040;-96
2023/03/01 17:45:37;;;;;;;7.40;2.00;;;;;;;4.76;100.00;101539.13;4915366;29;20486;-96
2023/03/01 17:48:03;;;;;;;5.38;1.95;;;;;;;4.98;100.00;101547.28;4914504;29;20021;-94
2023/03/01 17:50:28;;;;;;;6.13;1.90;;;;;;;4.71;100.00;101526.41;4915811;29;20035;-96
2023/03/01 17:52:57;;;;;;;5.30;1.40;;;;;;;4.78;100.00;101552.72;4915649;29;20033;-96